Los Alamitos Army Air Field
KSLI : rendu visible

Aérodrome :











RETROUVEZ-NOUS SUR...

 
LOGIN :

S'inscrire | Disclaimer

   EN    FR    IT 

 









Légende :    VFR   VFR Marginal   IFR   IFR Intensif   IFR Très Intensif
Visi : 
Plafond : 
>= 8 km
>= 3000ft
5 à 8 km
1000 à 3000 ft
1500m à 5 km
500 à 1000 ft
800 à 1500m
200 à 500 ft
< 800m
< 200 ft
Symboles :   Orages  Brouillard  Fortes neiges  Fortes précipitations  Vent > 20 kt






- Altitude de l'aérodrome : 32 ft


KSLI - Los Alamitos Army Air Field

DERNIER METAR :
  • 222358Z AUTO 20008KT 10SM CLR 16/11 A3003 RMK AO2 RAE16 SLP172 P0000 60000 T01600107 10178 20136 55001

METARs EXPIRÉS :
  • 222316Z 19009KT 10SM FEW030 SCT065 BKN120 15/10 A3003 RMK AO2A RAE16 SLP172
  • 222258Z 20006KT 10SM -RA FEW030 BKN065 BKN120 16/09 A3003 RMK AO2A RAB53 SLP172 P0000 T01560093
  • 222158Z 20009KT 10SM FEW030 FEW080 BKN100 17/12 A3003 RMK AO2A SLP172 T01660119

TAF TAF KSLI
Valide du 22 à 21h jusqu'au 24 à 03h UTC


222103Z 2221/2403 VRB06KT 9999 VCSH FEW010 OVC030 QNH3001INS
TEMPO 2221/2223 19012KT 9000 -TSRA BKN010
BECMG 2302/2303 VRB06KT 9999 NSW BKN020 QNH3007INS
BECMG 2318/2319 VRB06KT 9999 SKC QNH3020INS TX18/2322Z TN13/2313Z



MET'MAP, la Météo Aéronautique d'un coup d'oeil ! - Copyright ORBIFLY Décembre 2007 - Disclaimer

ORBIFLY MET'MAP TEAM :

Programmation & Développement : Alexandra Zaïnal
Sur une idée originale de : Baudouin d'Aumeries
Assistance à la programmation : Marc-Olivier Méhu
Soutien technique & logistique : Manuel Goepfert

Contact : metmap@orbifly.com




SOURCES & CREDITS :

   NOAA       Earth
Advisory